Time;durP1;ratioP1;P1;durP2;ratioP2;P2;SDS_P1;SDS_P2;PMS_P1;PMS_P2;Temp;Humidity;BMP_temperature;BMP_pressure;BME280_temperature;BME280_humidity;BME280_pressure;Samples;Min_cycle;Max_cycle;Signal;HPM_P1;HPM_P2
2023/07/21 00:02:09;;;;;;;8.10;5.55;;;28.70;30.80;;;;;;20995110;28;20040;-57
2023/07/21 00:12:10;;;;;;;10.43;6.45;;;28.50;31.30;;;;;;20996594;28;20041;-58
2023/07/21 00:22:11;;;;;;;7.65;5.65;;;28.20;31.90;;;;;;20995808;28;20130;-57
2023/07/21 00:32:17;;;;;;;11.50;6.88;;;28.10;32.30;;;;;;20995152;28;20044;-58
2023/07/21 00:42:18;;;;;;;11.45;5.53;;;28.00;32.40;;;;;;20993805;28;20047;-57
2023/07/21 00:52:19;;;;;;;;;;;27.80;32.80;;;;;;20993831;28;20124;-57
2023/07/21 01:02:21;;;;;;;10.03;6.47;;;27.70;32.70;;;;;;20995479;28;20403;-58
2023/07/21 01:12:21;;;;;;;8.70;5.85;;;27.70;32.80;;;;;;20993891;28;20055;-57
2023/07/21 01:22:31;;;;;;;;;;;27.60;33.10;;;;;;21009606;28;20153;-56
2023/07/21 01:32:36;;;;;;;8.40;5.55;;;27.40;33.30;;;;;;21010259;28;19927;-57
2023/07/21 01:42:37;;;;;;;9.05;5.78;;;27.40;33.50;;;;;;21008452;28;20102;-56
2023/07/21 01:52:38;;;;;;;8.60;5.78;;;27.20;33.70;;;;;;21007604;28;20124;-57
2023/07/21 02:02:41;;;;;;;11.32;5.20;;;27.30;33.80;;;;;;21008058;28;20133;-55
2023/07/21 02:12:41;;;;;;;6.85;5.20;;;27.20;34.00;;;;;;21007386;28;20071;-56
2023/07/21 02:22:43;;;;;;;7.70;5.57;;;27.10;34.20;;;;;;21005189;28;20088;-56
2023/07/21 02:32:43;;;;;;;;;;;27.10;34.50;;;;;;21005397;28;20080;-57
2023/07/21 02:42:45;;;;;;;8.50;5.22;;;27.00;34.70;;;;;;21003955;28;19920;-58
2023/07/21 02:52:46;;;;;;;8.33;6.10;;;26.90;35.10;;;;;;21004168;28;20045;-57
2023/07/21 03:02:47;;;;;;;7.47;5.70;;;26.80;35.40;;;;;;21003857;28;20044;-56
2023/07/21 03:12:48;;;;;;;6.83;5.67;;;26.70;35.60;;;;;;21001420;28;20432;-57
2023/07/21 03:22:48;;;;;;;8.23;6.10;;;26.60;35.80;;;;;;21001169;28;20045;-56
2023/07/21 03:32:49;;;;;;;7.60;5.40;;;26.60;36.00;;;;;;21001207;28;20124;-56
2023/07/21 03:42:50;;;;;;;6.13;5.10;;;26.50;36.20;;;;;;20999946;28;20045;-56
2023/07/21 03:52:51;;;;;;;9.20;5.43;;;26.50;36.30;;;;;;20999580;28;20040;-56
2023/07/21 04:02:51;;;;;;;6.97;5.37;;;26.40;36.60;;;;;;20998587;28;20355;-56
2023/07/21 04:12:52;;;;;;;7.70;5.43;;;26.20;37.00;;;;;;20997494;28;20040;-57
2023/07/21 04:22:53;;;;;;;9.03;5.47;;;26.20;37.00;;;;;;20996743;28;20052;-57
2023/07/21 04:32:54;;;;;;;7.87;6.10;;;26.10;37.20;;;;;;20995616;28;20125;-56
2023/07/21 04:42:54;;;;;;;8.83;4.83;;;26.20;37.30;;;;;;20995468;28;20382;-58
2023/07/21 04:52:55;;;;;;;7.60;6.03;;;26.10;37.60;;;;;;20994218;28;20047;-58
2023/07/21 05:02:56;;;;;;;9.80;5.50;;;25.90;38.00;;;;;;20996455;28;20494;-57
2023/07/21 05:12:57;;;;;;;15.23;5.67;;;25.90;37.90;;;;;;20994183;28;20404;-57
2023/07/21 05:22:58;;;;;;;8.55;5.82;;;25.90;38.00;;;;;;20994010;28;20056;-57
2023/07/21 05:32:59;;;;;;;10.83;5.97;;;25.70;38.90;;;;;;20994489;28;20166;-56
2023/07/21 05:43:00;;;;;;;11.83;5.90;;;25.60;39.00;;;;;;20992509;28;20094;-58
2023/07/21 05:53:00;;;;;;;9.13;6.03;;;25.70;38.70;;;;;;20994001;28;20040;-58
2023/07/21 06:03:02;;;;;;;7.30;5.90;;;25.70;38.80;;;;;;20997251;28;20124;-55
2023/07/21 06:13:04;;;;;;;9.07;5.45;;;25.70;38.80;;;;;;21006713;28;20132;-56
2023/07/21 06:23:04;;;;;;;9.88;5.15;;;25.90;36.40;;;;;;21006072;28;20071;-56
2023/07/21 06:33:07;;;;;;;9.03;4.70;;;25.80;36.30;;;;;;21005777;28;20438;-58
2023/07/21 06:43:08;;;;;;;7.53;5.05;;;25.80;36.90;;;;;;21003450;28;20122;-57
2023/07/21 06:53:09;;;;;;;8.73;5.00;;;25.90;37.80;;;;;;21003954;28;20147;-57
2023/07/21 07:03:09;;;;;;;8.93;5.07;;;26.00;38.50;;;;;;21003500;28;20043;-56
2023/07/21 07:13:10;;;;;;;14.50;5.80;;;26.50;39.30;;;;;;21002148;28;20040;-58
2023/07/21 07:23:11;;;;;;;10.20;5.27;;;26.90;37.60;;;;;;21001086;28;20059;-57
2023/07/21 07:33:14;;;;;;;9.77;5.50;;;27.40;36.90;;;;;;20998879;28;20055;-57
2023/07/21 07:43:15;;;;;;;9.90;5.03;;;27.70;36.60;;;;;;20999330;28;20062;-57
2023/07/21 07:53:16;;;;;;;13.95;5.63;;;28.20;35.90;;;;;;20998799;28;20076;-58
2023/07/21 08:03:17;;;;;;;7.45;4.72;;;28.60;35.60;;;;;;20998436;28;20055;-56
2023/07/21 08:13:18;;;;;;;8.13;5.00;;;28.70;35.10;;;;;;20997926;28;20040;-56
2023/07/21 08:23:18;;;;;;;6.82;5.03;;;29.00;34.80;;;;;;20995903;28;20055;-57
2023/07/21 08:33:19;;;;;;;9.90;4.90;;;29.10;34.50;;;;;;20996278;28;20047;-56
2023/07/21 08:43:20;;;;;;;9.57;4.85;;;29.20;34.50;;;;;;20996450;28;20045;-57
2023/07/21 08:53:24;;;;;;;9.93;5.53;;;29.50;34.10;;;;;;20996104;28;20133;-57
2023/07/21 09:03:30;;;;;;;7.35;4.93;;;29.60;33.80;;;;;;20994206;28;20048;-57
2023/07/21 09:13:32;;;;;;;9.88;5.10;;;29.70;33.80;;;;;;20995713;28;20128;-59
2023/07/21 09:23:33;;;;;;;8.35;5.30;;;29.80;33.60;;;;;;20993361;28;20052;-58
2023/07/21 09:33:38;;;;;;;12.05;5.72;;;29.90;33.10;;;;;;20994917;28;20052;-57
2023/07/21 09:43:40;;;;;;;10.00;5.45;;;30.20;32.40;;;;;;21008719;28;20041;-57
2023/07/21 09:53:45;;;;;;;9.30;5.53;;;30.10;32.60;;;;;;21008488;28;20049;-56
2023/07/21 10:03:46;;;;;;;14.02;5.93;;;30.40;32.30;;;;;;21008082;28;20040;-57
2023/07/21 10:13:47;;;;;;;7.95;5.35;;;30.50;31.80;;;;;;21005992;28;20123;-57
2023/07/21 10:23:51;;;;;;;7.60;5.35;;;30.50;31.30;;;;;;21005703;28;20052;-58
2023/07/21 10:34:03;;;;;;;7.70;5.85;;;30.90;29.30;;;;;;21005673;28;20485;-58
2023/07/21 10:44:09;;;;;;;8.27;5.68;;;31.00;29.40;;;;;;21004485;28;20478;-57
2023/07/21 10:54:11;;;;;;;8.13;5.50;;;30.80;29.40;;;;;;21001609;28;20090;-57
2023/07/21 11:04:17;;;;;;;9.82;6.65;;;31.00;29.40;;;;;;21002444;28;20052;-57
2023/07/21 11:14:25;;;;;;;9.32;5.75;;;31.30;28.60;;;;;;21002554;28;20044;-58
2023/07/21 11:24:30;;;;;;;9.52;5.70;;;31.40;28.20;;;;;;21001369;28;20064;-58
2023/07/21 11:34:35;;;;;;;7.43;6.47;;;31.60;27.80;;;;;;21002025;28;20142;-56
2023/07/21 11:44:37;;;;;;;9.52;6.45;;;31.60;27.10;;;;;;20998831;28;20045;-57
2023/07/21 11:54:43;;;;;;;9.10;6.10;;;31.80;27.00;;;;;;20999328;28;20045;-56
2023/07/21 12:04:44;;;;;;;8.18;6.57;;;32.00;26.80;;;;;;20997943;28;20532;-57
2023/07/21 12:14:45;;;;;;;9.52;6.60;;;31.80;26.70;;;;;;20997934;28;20052;-57
2023/07/21 12:24:46;;;;;;;9.57;6.97;;;32.10;25.40;;;;;;20996133;28;20131;-56
2023/07/21 12:34:47;;;;;;;10.65;6.72;;;32.30;24.40;;;;;;20996576;28;20048;-56
2023/07/21 12:44:47;;;;;;;9.57;7.10;;;32.40;25.60;;;;;;20994502;28;20102;-58
2023/07/21 12:54:48;;;;;;;10.13;7.40;;;32.30;25.10;;;;;;20995793;28;20040;-57
2023/07/21 13:04:50;;;;;;;12.30;7.18;;;32.50;24.50;;;;;;20995762;28;20044;-57
2023/07/21 13:14:50;;;;;;;9.02;7.10;;;32.50;24.70;;;;;;21004753;28;20051;-57
2023/07/21 13:24:51;;;;;;;8.80;7.18;;;32.50;24.30;;;;;;21010786;28;20052;-58
2023/07/21 13:34:52;;;;;;;8.50;7.22;;;32.40;23.90;;;;;;21009222;28;20195;-57
2023/07/21 13:44:53;;;;;;;7.45;6.30;;;32.60;22.90;;;;;;21008505;28;20401;-57
2023/07/21 13:54:54;;;;;;;9.63;6.32;;;33.00;22.50;;;;;;21007811;28;20417;-58
2023/07/21 14:04:54;;;;;;;7.90;5.95;;;32.70;22.30;;;;;;21008376;28;20048;-56
2023/07/21 14:14:55;;;;;;;8.88;6.05;;;33.00;22.20;;;;;;21007333;28;20068;-56
2023/07/21 14:24:56;;;;;;;7.15;5.85;;;32.90;22.50;;;;;;21004798;28;20091;-57
2023/07/21 14:34:57;;;;;;;5.53;4.85;;;33.00;23.20;;;;;;21006336;28;20407;-58
2023/07/21 14:44:58;;;;;;;8.90;6.20;;;33.10;20.60;;;;;;21005394;28;20124;-57
2023/07/21 14:54:59;;;;;;;7.95;5.90;;;33.00;20.80;;;;;;21083969;28;20044;-57
2023/07/21 15:05:00;;;;;;;7.28;6.20;;;33.00;20.20;;;;;;21086027;28;20040;-57
2023/07/21 15:15:00;;;;;;;6.97;6.22;;;33.10;20.00;;;;;;21085208;28;20401;-57
2023/07/21 15:25:03;;;;;;;7.05;6.25;;;32.90;20.90;;;;;;21084813;28;20101;-58
2023/07/21 15:35:05;;;;;;;7.85;5.43;;;33.10;19.70;;;;;;21083371;28;20122;-57
2023/07/21 15:45:06;;;;;;;8.05;5.68;;;33.10;18.90;;;;;;21082921;28;20048;-57
2023/07/21 15:55:10;;;;;;;6.70;5.70;;;33.10;19.80;;;;;;21082189;28;20127;-58
2023/07/21 16:05:12;;;;;;;5.97;4.72;;;32.90;18.50;;;;;;21082769;28;20098;-58
2023/07/21 16:15:13;;;;;;;6.05;4.60;;;33.10;18.30;;;;;;21082443;28;20080;-57
2023/07/21 16:25:13;;;;;;;6.85;5.28;;;33.10;17.90;;;;;;21079730;28;20063;-57
2023/07/21 16:35:14;;;;;;;5.57;4.40;;;33.10;17.80;;;;;;21080567;28;20063;-57
2023/07/21 16:45:15;;;;;;;8.00;4.25;;;32.90;17.60;;;;;;21079505;28;20067;-61
2023/07/21 16:55:16;;;;;;;6.53;4.03;;;33.00;19.40;;;;;;21016772;28;20098;-64
2023/07/21 17:05:17;;;;;;;6.10;4.60;;;32.30;17.40;;;;;;20950280;28;20048;-60
2023/07/21 17:15:18;;;;;;;6.45;4.97;;;32.20;18.50;;;;;;20909837;28;20576;-61
2023/07/21 17:25:19;;;;;;;5.95;5.03;;;32.10;19.30;;;;;;20905672;28;20132;-61
2023/07/21 17:35:20;;;;;;;5.95;4.53;;;32.10;19.80;;;;;;20899911;28;20145;-62
2023/07/21 17:45:23;;;;;;;6.70;5.43;;;32.00;19.50;;;;;;20909772;28;20328;-60
2023/07/21 17:55:24;;;;;;;7.30;4.65;;;31.90;20.40;;;;;;20910221;28;20045;-63
2023/07/21 18:05:24;;;;;;;5.90;5.15;;;31.80;20.10;;;;;;20924822;28;20087;-63
2023/07/21 18:15:29;;;;;;;6.38;5.53;;;31.60;21.30;;;;;;20924126;28;20048;-62
2023/07/21 18:25:29;;;;;;;7.75;5.30;;;31.60;21.50;;;;;;20922082;28;20053;-61
2023/07/21 18:35:30;;;;;;;6.82;5.57;;;31.40;22.10;;;;;;20921101;28;20055;-61
2023/07/21 18:45:31;;;;;;;8.43;6.10;;;31.30;22.00;;;;;;20922327;28;20045;-59
2023/07/21 18:55:32;;;;;;;8.23;5.55;;;31.10;22.70;;;;;;20919986;28;20037;-58
2023/07/21 19:05:34;;;;;;;6.72;5.90;;;31.20;22.60;;;;;;20919778;28;20041;-58
2023/07/21 19:15:37;;;;;;;8.70;6.13;;;31.10;22.50;;;;;;20918820;28;20123;-58
2023/07/21 19:25:38;;;;;;;7.75;6.75;;;30.90;22.80;;;;;;20919839;28;20084;-58
2023/07/21 19:35:39;;;;;;;10.35;7.40;;;30.80;23.30;;;;;;20918143;28;20081;-58
2023/07/21 19:45:40;;;;;;;8.32;6.45;;;30.60;24.10;;;;;;20915874;28;20041;-58
2023/07/21 19:55:41;;;;;;;10.15;7.57;;;30.50;24.10;;;;;;20915253;28;20041;-58
2023/07/21 20:05:41;;;;;;;8.80;7.75;;;30.30;26.50;;;;;;20915927;28;20399;-58
2023/07/21 20:15:43;;;;;;;12.88;7.40;;;30.10;28.20;;;;;;20914050;28;20072;-57
2023/07/21 20:25:45;;;;;;;10.70;7.85;;;30.00;28.70;;;;;;20914957;28;20468;-59
2023/07/21 20:35:47;;;;;;;9.10;6.88;;;29.90;28.90;;;;;;20914154;28;20045;-62
2023/07/21 20:45:48;;;;;;;11.55;6.95;;;29.50;28.90;;;;;;20914100;28;20037;-58
2023/07/21 20:55:55;;;;;;;10.05;7.20;;;29.40;29.00;;;;;;20913234;28;20037;-57
2023/07/21 21:05:57;;;;;;;9.07;7.78;;;29.50;29.00;;;;;;20912806;28;20486;-58
2023/07/21 21:16:00;;;;;;;8.57;6.88;;;29.20;29.30;;;;;;20912285;28;20048;-58
2023/07/21 21:26:02;;;;;;;8.80;7.32;;;28.90;29.50;;;;;;20911734;28;20473;-58
2023/07/21 21:36:03;;;;;;;8.50;6.57;;;28.90;29.60;;;;;;20920981;28;20049;-59
2023/07/21 21:46:03;;;;;;;10.02;7.30;;;28.70;29.50;;;;;;20927311;28;20045;-57
2023/07/21 21:56:04;;;;;;;9.90;7.35;;;28.70;29.50;;;;;;20926095;28;20053;-57
2023/07/21 22:06:05;;;;;;;9.25;6.65;;;28.70;29.50;;;;;;20923982;28;20045;-58
2023/07/21 22:16:06;;;;;;;10.80;7.20;;;28.60;29.70;;;;;;20923615;28;20478;-58
2023/07/21 22:26:07;;;;;;;10.68;8.07;;;28.70;29.60;;;;;;20922996;28;20581;-57
2023/07/21 22:36:09;;;;;;;9.10;7.20;;;28.80;29.80;;;;;;20921940;28;20528;-57
2023/07/21 22:46:10;;;;;;;8.63;7.25;;;28.60;30.30;;;;;;20921460;28;20442;-58
2023/07/21 22:56:10;;;;;;;9.00;7.15;;;28.30;30.70;;;;;;20921865;28;20045;-57
2023/07/21 23:06:11;;;;;;;;;;;28.10;32.00;;;;;;20921619;28;20037;-57
2023/07/21 23:16:12;;;;;;;10.02;5.10;;;27.70;33.20;;;;;;20920264;28;20362;-58
2023/07/21 23:26:12;;;;;;;5.30;4.33;;;27.40;34.60;;;;;;20918106;28;20059;-58
2023/07/21 23:36:13;;;;;;;8.83;4.80;;;27.00;35.90;;;;;;20918576;28;20064;-57
2023/07/21 23:46:14;;;;;;;5.57;4.30;;;26.70;37.30;;;;;;20918112;28;20102;-57
2023/07/21 23:56:14;;;;;;;5.77;4.33;;;26.40;38.30;;;;;;20916534;28;20045;-59
